Terminal Aerodrome Forecast
Issued by NWS

Current Version | Previous Version | Graphics & Text | Print | Product List | Glossary On
Versions: 1 2 3 4 5 6 7 8 9 10 11 12 13 14 15 16 17 18 19 20 21 22 23 24 25 26 27 28 29 30 31 32 33 34 35 36
000
FTUS41 KRNK 271123
TAFLWB
TAF
KLWB 271123Z 2712/2812 00000KT 4SM BR SKC
      TEMPO 2712/2713 1SM BR SCT006
     FM271330 32007KT P6SM SKC
     FM271600 32010G19KT P6SM BKN050
     FM272300 31006KT P6SM BKN040
     FM280500 32003KT 6SM BR SCT030=

USA.gov is the U.S. government's official web portal to all federal, state and local government web resources and services.